sensor_id;sensor_type;location;lat;lon;timestamp;noise_LAeq;noise_LA_min;noise_LA_max;noise_LA01;noise_LA95
45651;Laerm;31365;48.858;8.530;2023-03-23T00:01:16;41.32;37.12;43.39;;
45651;Laerm;31365;48.858;8.530;2023-03-23T00:03:46;45.16;36.69;72.65;;
45651;Laerm;31365;48.858;8.530;2023-03-23T00:06:14;41.66;37.52;55.00;;
45651;Laerm;31365;48.858;8.530;2023-03-23T00:08:45;53.37;37.88;70.86;;
45651;Laerm;31365;48.858;8.530;2023-03-23T00:11:14;43.16;37.52;67.49;;
45651;Laerm;31365;48.858;8.530;2023-03-23T00:13:44;46.08;37.88;72.12;;
45651;Laerm;31365;48.858;8.530;2023-03-23T00:16:13;41.51;37.32;54.70;;
45651;Laerm;31365;48.858;8.530;2023-03-23T00:18:48;50.30;36.91;69.78;;
45651;Laerm;31365;48.858;8.530;2023-03-23T00:21:19;41.31;36.20;56.27;;
45651;Laerm;31365;48.858;8.530;2023-03-23T00:23:46;53.60;36.45;74.29;;
45651;Laerm;31365;48.858;8.530;2023-03-23T00:26:14;41.21;37.12;46.38;;
45651;Laerm;31365;48.858;8.530;2023-03-23T00:28:41;41.11;36.20;52.46;;
45651;Laerm;31365;48.858;8.530;2023-03-23T00:31:09;42.59;37.32;68.82;;
45651;Laerm;31365;48.858;8.530;2023-03-23T00:33:38;41.03;36.69;50.02;;
45651;Laerm;31365;48.858;8.530;2023-03-23T00:36:08;53.28;36.69;73.15;;
45651;Laerm;31365;48.858;8.530;2023-03-23T00:38:36;42.19;35.94;64.77;;
45651;Laerm;31365;48.858;8.530;2023-03-23T00:41:05;42.16;35.94;67.89;;
45651;Laerm;31365;48.858;8.530;2023-03-23T00:43:33;41.12;36.91;50.56;;
45651;Laerm;31365;48.858;8.530;2023-03-23T00:46:03;53.62;37.32;74.20;;
45651;Laerm;31365;48.858;8.530;2023-03-23T00:48:36;53.04;37.52;72.62;;
45651;Laerm;31365;48.858;8.530;2023-03-23T00:51:07;42.24;37.52;60.72;;
45651;Laerm;31365;48.858;8.530;2023-03-23T00:53:37;43.50;37.12;65.03;;
45651;Laerm;31365;48.858;8.530;2023-03-23T00:56:05;44.60;37.32;77.74;;
45651;Laerm;31365;48.858;8.530;2023-03-23T00:58:33;51.02;37.12;69.58;;
45651;Laerm;31365;48.858;8.530;2023-03-23T01:01:01;41.79;37.12;65.26;;
45651;Laerm;31365;48.858;8.530;2023-03-23T01:03:28;40.83;36.45;43.58;;
45651;Laerm;31365;48.858;8.530;2023-03-23T01:06:05;41.15;36.45;53.13;;
45651;Laerm;31365;48.858;8.530;2023-03-23T01:08:34;51.05;37.12;68.74;;
45651;Laerm;31365;48.858;8.530;2023-03-23T01:11:06;42.76;35.94;63.20;;
45651;Laerm;31365;48.858;8.530;2023-03-23T01:13:33;52.06;36.91;75.05;;
45651;Laerm;31365;48.858;8.530;2023-03-23T01:16:00;41.03;37.12;45.63;;
45651;Laerm;31365;48.858;8.530;2023-03-23T01:18:28;53.91;36.69;72.82;;
45651;Laerm;31365;48.858;8.530;2023-03-23T01:20:56;40.99;35.66;45.91;;
45651;Laerm;31365;48.858;8.530;2023-03-23T01:23:25;40.85;34.31;47.74;;
45651;Laerm;31365;48.858;8.530;2023-03-23T01:25:54;41.63;36.91;63.05;;
45651;Laerm;31365;48.858;8.530;2023-03-23T01:28:24;40.98;36.69;50.90;;
45651;Laerm;31365;48.858;8.530;2023-03-23T01:30:51;40.94;35.66;49.28;;
45651;Laerm;31365;48.858;8.530;2023-03-23T01:33:18;47.47;35.04;66.05;;
45651;Laerm;31365;48.858;8.530;2023-03-23T01:35:45;48.80;37.70;67.46;;
45651;Laerm;31365;48.858;8.530;2023-03-23T01:38:12;41.78;37.32;57.38;;
45651;Laerm;31365;48.858;8.530;2023-03-23T01:40:41;43.65;37.88;52.33;;
45651;Laerm;31365;48.858;8.530;2023-03-23T01:43:14;41.17;36.45;50.22;;
45651;Laerm;31365;48.858;8.530;2023-03-23T01:45:44;41.17;36.91;56.35;;
45651;Laerm;31365;48.858;8.530;2023-03-23T01:48:17;40.68;34.31;43.04;;
45651;Laerm;31365;48.858;8.530;2023-03-23T01:50:53;40.43;35.66;42.65;;
45651;Laerm;31365;48.858;8.530;2023-03-23T01:53:26;40.69;36.20;49.12;;
45651;Laerm;31365;48.858;8.530;2023-03-23T01:55:59;40.73;35.04;53.63;;
45651;Laerm;31365;48.858;8.530;2023-03-23T02:01:02;41.86;36.91;52.76;;
45651;Laerm;31365;48.858;8.530;2023-03-23T02:03:31;42.84;35.66;56.62;;
45651;Laerm;31365;48.858;8.530;2023-03-23T02:05:59;40.32;35.04;43.58;;
45651;Laerm;31365;48.858;8.530;2023-03-23T02:08:38;40.33;35.04;42.76;;
45651;Laerm;31365;48.858;8.530;2023-03-23T02:11:13;53.03;35.36;72.54;;
45651;Laerm;31365;48.858;8.530;2023-03-23T02:13:42;41.93;37.12;52.82;;
45651;Laerm;31365;48.858;8.530;2023-03-23T02:16:20;40.73;35.36;42.88;;
45651;Laerm;31365;48.858;8.530;2023-03-23T02:19:03;41.15;36.45;49.19;;
45651;Laerm;31365;48.858;8.530;2023-03-23T02:22:22;41.15;35.94;55.13;;
45651;Laerm;31365;48.858;8.530;2023-03-23T02:25:14;57.62;36.91;79.81;;
45651;Laerm;31365;48.858;8.530;2023-03-23T02:28:16;40.58;34.31;49.16;;
45651;Laerm;31365;48.858;8.530;2023-03-23T02:31:03;40.82;36.45;43.28;;
45651;Laerm;31365;48.858;8.530;2023-03-23T02:33:45;40.83;35.94;45.63;;
45651;Laerm;31365;48.858;8.530;2023-03-23T02:36:22;62.36;35.94;81.67;;
45651;Laerm;31365;48.858;8.530;2023-03-23T02:39:01;41.61;37.52;59.17;;
45651;Laerm;31365;48.858;8.530;2023-03-23T02:41:39;41.40;36.45;43.39;;
45651;Laerm;31365;48.858;8.530;2023-03-23T02:44:10;54.26;37.88;75.73;;
45651;Laerm;31365;48.858;8.530;2023-03-23T02:46:39;41.44;37.12;51.33;;
45651;Laerm;31365;48.858;8.530;2023-03-23T02:49:12;42.54;37.32;62.04;;
45651;Laerm;31365;48.858;8.530;2023-03-23T02:51:44;41.91;36.69;61.68;;
45651;Laerm;31365;48.858;8.530;2023-03-23T02:54:16;41.50;36.69;50.31;;
45651;Laerm;31365;48.858;8.530;2023-03-23T02:56:47;56.98;37.52;78.08;;
45651;Laerm;31365;48.858;8.530;2023-03-23T02:59:22;41.48;36.69;59.39;;
45651;Laerm;31365;48.858;8.530;2023-03-23T03:02:05;52.59;37.12;73.05;;
45651;Laerm;31365;48.858;8.530;2023-03-23T03:04:37;61.38;37.70;82.85;;
45651;Laerm;31365;48.858;8.530;2023-03-23T03:07:43;41.42;36.45;53.21;;
45651;Laerm;31365;48.858;8.530;2023-03-23T03:10:22;44.61;37.88;68.54;;
45651;Laerm;31365;48.858;8.530;2023-03-23T03:12:59;43.04;37.12;65.03;;
45651;Laerm;31365;48.858;8.530;2023-03-23T03:15:36;42.54;37.32;61.31;;
45651;Laerm;31365;48.858;8.530;2023-03-23T03:18:11;43.61;37.88;63.92;;
45651;Laerm;31365;48.858;8.530;2023-03-23T03:20:48;61.37;38.81;79.68;;
45651;Laerm;31365;48.858;8.530;2023-03-23T03:23:17;43.01;37.52;66.03;;
45651;Laerm;31365;48.858;8.530;2023-03-23T03:25:48;42.88;38.05;63.50;;
45651;Laerm;31365;48.858;8.530;2023-03-23T03:28:26;56.13;38.67;75.69;;
45651;Laerm;31365;48.858;8.530;2023-03-23T03:30:57;50.57;37.70;67.82;;
45651;Laerm;31365;48.858;8.530;2023-03-23T03:33:29;54.67;38.67;73.54;;
45651;Laerm;31365;48.858;8.530;2023-03-23T03:36:01;48.96;37.70;65.89;;
45651;Laerm;31365;48.858;8.530;2023-03-23T03:38:29;43.76;37.70;68.77;;
45651;Laerm;31365;48.858;8.530;2023-03-23T03:40:57;42.70;37.32;61.16;;
45651;Laerm;31365;48.858;8.530;2023-03-23T03:43:24;53.96;39.46;75.88;;
45651;Laerm;31365;48.858;8.530;2023-03-23T03:45:51;49.81;37.52;67.70;;
45651;Laerm;31365;48.858;8.530;2023-03-23T03:48:19;47.86;37.32;64.06;;
45651;Laerm;31365;48.858;8.530;2023-03-23T03:50:46;49.52;36.45;67.58;;
45651;Laerm;31365;48.858;8.530;2023-03-23T03:53:16;44.57;37.88;61.42;;
45651;Laerm;31365;48.858;8.530;2023-03-23T03:55:43;53.20;38.67;72.84;;
45651;Laerm;31365;48.858;8.530;2023-03-23T03:58:13;56.38;37.32;79.15;;
45651;Laerm;31365;48.858;8.530;2023-03-23T04:01:06;52.25;36.69;75.13;;
45651;Laerm;31365;48.858;8.530;2023-03-23T04:03:38;54.78;35.66;76.75;;
45651;Laerm;31365;48.858;8.530;2023-03-23T04:06:29;56.92;36.20;75.22;;
45651;Laerm;31365;48.858;8.530;2023-03-23T04:09:03;57.72;36.69;77.58;;
45651;Laerm;31365;48.858;8.530;2023-03-23T04:11:33;56.16;36.77;76.89;;
45651;Laerm;31365;48.858;8.530;2023-03-23T04:14:23;54.02;37.12;73.82;;
45651;Laerm;31365;48.858;8.530;2023-03-23T04:16:53;55.39;37.32;73.39;;
45651;Laerm;31365;48.858;8.530;2023-03-23T04:19:23;56.31;37.32;77.99;;
45651;Laerm;31365;48.858;8.530;2023-03-23T04:21:51;52.84;38.05;72.06;;
45651;Laerm;31365;48.858;8.530;2023-03-23T04:24:19;46.37;36.20;65.78;;
45651;Laerm;31365;48.858;8.530;2023-03-23T04:26:50;58.70;39.58;75.15;;
45651;Laerm;31365;48.858;8.530;2023-03-23T04:29:25;59.69;38.67;77.71;;
45651;Laerm;31365;48.858;8.530;2023-03-23T04:32:13;57.17;37.32;76.13;;
45651;Laerm;31365;48.858;8.530;2023-03-23T04:34:47;58.74;37.88;73.24;;
45651;Laerm;31365;48.858;8.530;2023-03-23T04:37:15;58.81;38.05;78.29;;
45651;Laerm;31365;48.858;8.530;2023-03-23T04:39:44;63.97;40.43;83.44;;
45651;Laerm;31365;48.858;8.530;2023-03-23T04:42:13;53.15;37.88;65.23;;
45651;Laerm;31365;48.858;8.530;2023-03-23T04:44:56;61.47;40.71;76.33;;
45651;Laerm;31365;48.858;8.530;2023-03-23T04:47:33;61.98;39.58;79.33;;
45651;Laerm;31365;48.858;8.530;2023-03-23T04:50:13;58.74;38.37;72.18;;
45651;Laerm;31365;48.858;8.530;2023-03-23T04:52:41;62.31;39.58;78.60;;
45651;Laerm;31365;48.858;8.530;2023-03-23T04:55:14;61.74;40.36;77.26;;
45651;Laerm;31365;48.858;8.530;2023-03-23T04:57:47;59.52;40.13;77.36;;
45651;Laerm;31365;48.858;8.530;2023-03-23T05:00:35;65.39;38.81;85.78;;
45651;Laerm;31365;48.858;8.530;2023-03-23T05:03:04;63.88;38.67;78.95;;
45651;Laerm;31365;48.858;8.530;2023-03-23T05:05:34;60.47;39.92;76.28;;
45651;Laerm;31365;48.858;8.530;2023-03-23T05:08:05;60.24;39.92;75.68;;
45651;Laerm;31365;48.858;8.530;2023-03-23T05:10:38;62.40;39.78;76.37;;
45651;Laerm;31365;48.858;8.530;2023-03-23T05:13:09;62.45;40.53;76.87;;
45651;Laerm;31365;48.858;8.530;2023-03-23T05:15:37;62.73;39.92;76.67;;
45651;Laerm;31365;48.858;8.530;2023-03-23T05:18:05;63.51;43.68;77.20;;
45651;Laerm;31365;48.858;8.530;2023-03-23T05:20:33;62.83;38.05;76.01;;
45651;Laerm;31365;48.858;8.530;2023-03-23T05:23:09;64.53;40.98;78.87;;
45651;Laerm;31365;48.858;8.530;2023-03-23T05:25:39;61.45;38.81;77.70;;
45651;Laerm;31365;48.858;8.530;2023-03-23T05:28:13;61.95;38.21;77.52;;
45651;Laerm;31365;48.858;8.530;2023-03-23T05:30:43;66.01;41.96;83.64;;
45651;Laerm;31365;48.858;8.530;2023-03-23T05:33:11;63.29;41.30;75.64;;
45651;Laerm;31365;48.858;8.530;2023-03-23T05:36:08;68.71;42.22;91.45;;
45651;Laerm;31365;48.858;8.530;2023-03-23T05:39:02;64.12;42.53;75.61;;
45651;Laerm;31365;48.858;8.530;2023-03-23T05:41:54;64.16;42.03;77.65;;
45651;Laerm;31365;48.858;8.530;2023-03-23T05:44:24;67.78;43.81;81.88;;
45651;Laerm;31365;48.858;8.530;2023-03-23T05:46:53;62.24;42.09;77.55;;
45651;Laerm;31365;48.858;8.530;2023-03-23T05:49:21;67.02;44.58;81.38;;
45651;Laerm;31365;48.858;8.530;2023-03-23T05:51:50;62.96;40.23;76.10;;
45651;Laerm;31365;48.858;8.530;2023-03-23T05:54:18;66.56;46.50;80.56;;
45651;Laerm;31365;48.858;8.530;2023-03-23T05:56:47;64.89;40.71;77.57;;
45651;Laerm;31365;48.858;8.530;2023-03-23T05:59:37;65.24;42.35;81.20;;
45651;Laerm;31365;48.858;8.530;2023-03-23T06:02:07;65.97;42.41;78.29;;
45651;Laerm;31365;48.858;8.530;2023-03-23T06:04:34;66.00;45.33;78.02;;
45651;Laerm;31365;48.858;8.530;2023-03-23T06:07:10;65.69;41.46;79.26;;
45651;Laerm;31365;48.858;8.530;2023-03-23T06:09:43;67.70;43.29;83.55;;
45651;Laerm;31365;48.858;8.530;2023-03-23T06:12:13;65.86;43.28;79.88;;
45651;Laerm;31365;48.858;8.530;2023-03-23T06:14:49;65.27;43.86;77.48;;
45651;Laerm;31365;48.858;8.530;2023-03-23T06:17:23;67.86;48.81;78.87;;
45651;Laerm;31365;48.858;8.530;2023-03-23T06:19:52;64.38;42.06;77.36;;
45651;Laerm;31365;48.858;8.530;2023-03-23T06:25:09;67.97;42.98;84.12;;
45651;Laerm;31365;48.858;8.530;2023-03-23T06:27:42;67.65;47.61;81.31;;
45651;Laerm;31365;48.858;8.530;2023-03-23T06:30:12;64.91;42.09;78.62;;
45651;Laerm;31365;48.858;8.530;2023-03-23T06:32:42;65.77;43.24;79.47;;
45651;Laerm;31365;48.858;8.530;2023-03-23T06:35:12;65.47;43.86;77.94;;
45651;Laerm;31365;48.858;8.530;2023-03-23T06:38:11;65.67;43.09;81.82;;
45651;Laerm;31365;48.858;8.530;2023-03-23T06:40:52;66.43;44.15;81.99;;
45651;Laerm;31365;48.858;8.530;2023-03-23T06:43:19;66.98;45.72;81.09;;
45651;Laerm;31365;48.858;8.530;2023-03-23T06:46:06;73.40;43.24;92.53;;
45651;Laerm;31365;48.858;8.530;2023-03-23T06:48:36;66.17;43.63;79.95;;
45651;Laerm;31365;48.858;8.530;2023-03-23T06:51:06;66.77;43.49;78.35;;
45651;Laerm;31365;48.858;8.530;2023-03-23T06:53:35;63.88;42.98;76.09;;
45651;Laerm;31365;48.858;8.530;2023-03-23T06:56:05;66.61;43.99;83.35;;
45651;Laerm;31365;48.858;8.530;2023-03-23T06:58:33;62.92;41.82;76.35;;
45651;Laerm;31365;48.858;8.530;2023-03-23T07:01:01;66.70;44.43;82.41;;
45651;Laerm;31365;48.858;8.530;2023-03-23T07:03:35;67.01;43.34;79.77;;
45651;Laerm;31365;48.858;8.530;2023-03-23T07:06:03;73.49;45.57;96.87;;
45651;Laerm;31365;48.858;8.530;2023-03-23T07:08:34;66.31;43.99;83.64;;
45651;Laerm;31365;48.858;8.530;2023-03-23T07:11:02;65.83;45.33;77.48;;
45651;Laerm;31365;48.858;8.530;2023-03-23T07:13:29;64.69;42.29;78.61;;
45651;Laerm;31365;48.858;8.530;2023-03-23T07:16:00;65.42;45.45;77.42;;
45651;Laerm;31365;48.858;8.530;2023-03-23T07:18:28;67.90;44.11;88.19;;
45651;Laerm;31365;48.858;8.530;2023-03-23T07:20:59;65.38;44.15;79.51;;
45651;Laerm;31365;48.858;8.530;2023-03-23T07:23:30;63.99;42.93;78.31;;
45651;Laerm;31365;48.858;8.530;2023-03-23T07:26:04;65.14;45.07;76.86;;
45651;Laerm;31365;48.858;8.530;2023-03-23T07:28:37;63.86;41.61;75.46;;
45651;Laerm;31365;48.858;8.530;2023-03-23T07:31:17;67.04;43.29;83.20;;
45651;Laerm;31365;48.858;8.530;2023-03-23T07:33:44;65.61;45.01;81.92;;
45651;Laerm;31365;48.858;8.530;2023-03-23T07:36:12;65.73;45.01;80.43;;
45651;Laerm;31365;48.858;8.530;2023-03-23T07:38:40;66.94;45.69;80.04;;
45651;Laerm;31365;48.858;8.530;2023-03-23T07:41:07;63.65;41.06;78.89;;
45651;Laerm;31365;48.858;8.530;2023-03-23T07:43:36;63.15;41.96;77.33;;
45651;Laerm;31365;48.858;8.530;2023-03-23T07:46:20;64.57;43.14;78.20;;
45651;Laerm;31365;48.858;8.530;2023-03-23T07:48:57;66.06;41.14;81.01;;
45651;Laerm;31365;48.858;8.530;2023-03-23T07:51:33;66.50;43.39;80.65;;
45651;Laerm;31365;48.858;8.530;2023-03-23T07:54:01;65.35;39.58;84.16;;
45651;Laerm;31365;48.858;8.530;2023-03-23T07:56:48;65.17;43.97;78.30;;
45651;Laerm;31365;48.858;8.530;2023-03-23T07:59:21;66.67;43.34;82.07;;
45651;Laerm;31365;48.858;8.530;2023-03-23T08:01:49;62.57;39.81;79.35;;
45651;Laerm;31365;48.858;8.530;2023-03-23T08:04:38;63.52;39.81;79.52;;
45651;Laerm;31365;48.858;8.530;2023-03-23T08:07:37;64.50;43.29;77.46;;
45651;Laerm;31365;48.858;8.530;2023-03-23T08:10:12;64.95;43.09;82.52;;
45651;Laerm;31365;48.858;8.530;2023-03-23T08:13:05;69.58;42.35;85.57;;
45651;Laerm;31365;48.858;8.530;2023-03-23T08:15:59;64.38;42.76;79.18;;
45651;Laerm;31365;48.858;8.530;2023-03-23T08:18:52;65.99;44.03;80.05;;
45651;Laerm;31365;48.858;8.530;2023-03-23T08:21:40;61.33;41.68;77.00;;
45651;Laerm;31365;48.858;8.530;2023-03-23T08:24:24;65.31;43.19;81.66;;
45651;Laerm;31365;48.858;8.530;2023-03-23T08:26:59;63.47;42.29;76.96;;
45651;Laerm;31365;48.858;8.530;2023-03-23T08:29:45;64.10;43.90;77.77;;
45651;Laerm;31365;48.858;8.530;2023-03-23T08:32:45;61.51;41.38;77.19;;
45651;Laerm;31365;48.858;8.530;2023-03-23T08:35:44;65.21;43.19;79.27;;
45651;Laerm;31365;48.858;8.530;2023-03-23T08:38:31;65.52;41.96;81.96;;
45651;Laerm;31365;48.858;8.530;2023-03-23T08:41:21;65.95;40.98;83.49;;
45651;Laerm;31365;48.858;8.530;2023-03-23T08:43:57;76.39;40.53;99.34;;
45651;Laerm;31365;48.858;8.530;2023-03-23T08:46:38;66.54;43.54;84.18;;
45651;Laerm;31365;48.858;8.530;2023-03-23T08:49:18;63.40;42.71;76.42;;
45651;Laerm;31365;48.858;8.530;2023-03-23T08:52:12;64.95;41.89;82.29;;
45651;Laerm;31365;48.858;8.530;2023-03-23T08:54:59;64.34;42.41;79.74;;
45651;Laerm;31365;48.858;8.530;2023-03-23T08:57:50;63.88;42.47;84.82;;
45651;Laerm;31365;48.858;8.530;2023-03-23T09:00:52;62.87;43.29;76.99;;
45651;Laerm;31365;48.858;8.530;2023-03-23T09:03:38;64.98;43.09;78.84;;
45651;Laerm;31365;48.858;8.530;2023-03-23T09:06:38;65.84;45.80;81.27;;
45651;Laerm;31365;48.858;8.530;2023-03-23T09:09:05;64.10;42.13;78.58;;
45651;Laerm;31365;48.858;8.530;2023-03-23T09:11:36;65.20;40.53;80.70;;
45651;Laerm;31365;48.858;8.530;2023-03-23T09:14:06;65.00;43.29;78.16;;
45651;Laerm;31365;48.858;8.530;2023-03-23T09:16:34;63.87;42.53;81.04;;
45651;Laerm;31365;48.858;8.530;2023-03-23T09:19:02;66.89;43.24;78.65;;
45651;Laerm;31365;48.858;8.530;2023-03-23T09:21:29;66.89;43.24;78.65;;
45651;Laerm;31365;48.858;8.530;2023-03-23T09:23:56;66.33;43.09;88.64;;
45651;Laerm;31365;48.858;8.530;2023-03-23T09:26:25;62.24;42.03;78.15;;
45651;Laerm;31365;48.858;8.530;2023-03-23T09:28:53;65.49;41.38;81.96;;
45651;Laerm;31365;48.858;8.530;2023-03-23T09:31:24;67.11;45.04;81.26;;
45651;Laerm;31365;48.858;8.530;2023-03-23T09:33:52;64.42;42.71;79.24;;
45651;Laerm;31365;48.858;8.530;2023-03-23T09:36:22;67.08;42.88;82.61;;
45651;Laerm;31365;48.858;8.530;2023-03-23T09:38:51;67.09;44.27;80.50;;
45651;Laerm;31365;48.858;8.530;2023-03-23T09:41:46;68.12;44.31;82.39;;
45651;Laerm;31365;48.858;8.530;2023-03-23T09:44:30;67.18;44.97;84.06;;
45651;Laerm;31365;48.858;8.530;2023-03-23T09:47:08;66.23;40.13;83.97;;
45651;Laerm;31365;48.858;8.530;2023-03-23T09:49:44;66.08;41.38;77.81;;
45651;Laerm;31365;48.858;8.530;2023-03-23T09:52:15;66.36;41.06;79.95;;
45651;Laerm;31365;48.858;8.530;2023-03-23T09:54:46;65.24;43.54;80.53;;
45651;Laerm;31365;48.858;8.530;2023-03-23T09:57:22;65.96;47.36;79.59;;
45651;Laerm;31365;48.858;8.530;2023-03-23T09:59:57;68.11;42.16;82.29;;
45651;Laerm;31365;48.858;8.530;2023-03-23T10:02:38;62.55;42.41;79.03;;
45651;Laerm;31365;48.858;8.530;2023-03-23T10:05:29;65.28;41.89;80.60;;
45651;Laerm;31365;48.858;8.530;2023-03-23T10:07:57;66.59;41.61;81.99;;
45651;Laerm;31365;48.858;8.530;2023-03-23T10:10:39;63.17;42.03;76.73;;
45651;Laerm;31365;48.858;8.530;2023-03-23T10:13:21;62.17;39.81;79.05;;
45651;Laerm;31365;48.858;8.530;2023-03-23T10:15:55;61.96;41.53;74.57;;
45651;Laerm;31365;48.858;8.530;2023-03-23T10:18:30;66.14;41.96;81.33;;
45651;Laerm;31365;48.858;8.530;2023-03-23T10:21:00;62.86;40.23;78.88;;
45651;Laerm;31365;48.858;8.530;2023-03-23T10:23:44;64.39;42.76;76.96;;
45651;Laerm;31365;48.858;8.530;2023-03-23T10:26:33;63.94;42.29;79.17;;
45651;Laerm;31365;48.858;8.530;2023-03-23T10:29:12;77.63;42.47;100.70;;
45651;Laerm;31365;48.858;8.530;2023-03-23T10:31:46;64.23;44.47;76.41;;
45651;Laerm;31365;48.858;8.530;2023-03-23T10:34:23;65.82;43.34;79.37;;
45651;Laerm;31365;48.858;8.530;2023-03-23T10:37:01;64.36;41.30;82.19;;
45651;Laerm;31365;48.858;8.530;2023-03-23T10:39:38;66.62;43.94;81.18;;
45651;Laerm;31365;48.858;8.530;2023-03-23T10:42:08;67.44;45.17;83.43;;
45651;Laerm;31365;48.858;8.530;2023-03-23T10:44:36;66.79;45.66;81.26;;
45651;Laerm;31365;48.858;8.530;2023-03-23T10:47:06;65.41;43.86;80.53;;
45651;Laerm;31365;48.858;8.530;2023-03-23T10:49:40;67.30;51.18;88.91;;
45651;Laerm;31365;48.858;8.530;2023-03-23T10:52:24;64.24;43.04;76.50;;
45651;Laerm;31365;48.858;8.530;2023-03-23T10:54:57;65.41;42.36;78.15;;
45651;Laerm;31365;48.858;8.530;2023-03-23T10:57:27;59.65;40.33;77.44;;
45651;Laerm;31365;48.858;8.530;2023-03-23T11:00:02;64.11;40.43;75.66;;
45651;Laerm;31365;48.858;8.530;2023-03-23T11:02:37;64.70;45.33;80.53;;
45651;Laerm;31365;48.858;8.530;2023-03-23T11:05:18;67.56;45.57;80.95;;
45651;Laerm;31365;48.858;8.530;2023-03-23T11:07:53;65.93;45.36;84.76;;
45651;Laerm;31365;48.858;8.530;2023-03-23T11:10:23;61.29;42.71;79.29;;
45651;Laerm;31365;48.858;8.530;2023-03-23T11:15:30;62.16;38.37;76.77;;
45651;Laerm;31365;48.858;8.530;2023-03-23T11:18:01;62.04;39.81;75.59;;
45651;Laerm;31365;48.858;8.530;2023-03-23T11:20:36;61.51;40.13;74.49;;
45651;Laerm;31365;48.858;8.530;2023-03-23T11:23:21;66.72;40.71;82.44;;
45651;Laerm;31365;48.858;8.530;2023-03-23T11:26:00;67.18;44.23;80.82;;
45651;Laerm;31365;48.858;8.530;2023-03-23T11:28:34;73.65;39.08;92.67;;
45651;Laerm;31365;48.858;8.530;2023-03-23T11:31:05;64.81;42.82;79.11;;
45651;Laerm;31365;48.858;8.530;2023-03-23T11:33:40;59.67;36.45;74.86;;
45651;Laerm;31365;48.858;8.530;2023-03-23T11:36:12;67.06;42.53;81.07;;
45651;Laerm;31365;48.858;8.530;2023-03-23T11:38:40;65.69;41.22;83.32;;
45651;Laerm;31365;48.858;8.530;2023-03-23T11:41:11;64.53;42.85;77.73;;
45651;Laerm;31365;48.858;8.530;2023-03-23T11:43:43;64.85;40.71;76.97;;
45651;Laerm;31365;48.858;8.530;2023-03-23T11:46:20;63.25;42.93;78.39;;
45651;Laerm;31365;48.858;8.530;2023-03-23T11:48:57;63.45;41.61;77.84;;
45651;Laerm;31365;48.858;8.530;2023-03-23T11:51:37;63.64;41.30;83.43;;
45651;Laerm;31365;48.858;8.530;2023-03-23T11:54:19;65.13;43.00;82.52;;
45651;Laerm;31365;48.858;8.530;2023-03-23T11:56:49;64.48;42.35;78.53;;
45651;Laerm;31365;48.858;8.530;2023-03-23T11:59:25;66.05;43.86;80.26;;
45651;Laerm;31365;48.858;8.530;2023-03-23T12:01:57;60.90;42.09;74.75;;
45651;Laerm;31365;48.858;8.530;2023-03-23T12:04:40;70.68;41.68;88.04;;
45651;Laerm;31365;48.858;8.530;2023-03-23T12:07:40;64.19;43.64;78.78;;
45651;Laerm;31365;48.858;8.530;2023-03-23T12:10:25;63.99;45.36;75.25;;
45651;Laerm;31365;48.858;8.530;2023-03-23T12:13:09;66.55;45.86;82.03;;
45651;Laerm;31365;48.858;8.530;2023-03-23T12:15:49;64.05;41.68;77.92;;
45651;Laerm;31365;48.858;8.530;2023-03-23T12:18:27;65.49;40.80;81.58;;
45651;Laerm;31365;48.858;8.530;2023-03-23T12:21:08;63.67;44.39;78.01;;
45651;Laerm;31365;48.858;8.530;2023-03-23T12:23:56;65.37;46.35;79.23;;
45651;Laerm;31365;48.858;8.530;2023-03-23T12:26:30;64.92;43.58;85.83;;
45651;Laerm;31365;48.858;8.530;2023-03-23T12:29:35;62.55;40.33;75.12;;
45651;Laerm;31365;48.858;8.530;2023-03-23T12:32:35;65.81;42.71;83.83;;
45651;Laerm;31365;48.858;8.530;2023-03-23T12:35:25;63.30;40.33;77.75;;
45651;Laerm;31365;48.858;8.530;2023-03-23T12:38:10;65.83;38.05;87.53;;
45651;Laerm;31365;48.858;8.530;2023-03-23T12:41:05;63.16;39.46;78.73;;
45651;Laerm;31365;48.858;8.530;2023-03-23T12:43:51;67.34;45.67;84.30;;
45651;Laerm;31365;48.858;8.530;2023-03-23T12:46:52;64.49;40.18;82.81;;
45651;Laerm;31365;48.858;8.530;2023-03-23T12:49:27;66.88;43.58;86.72;;
45651;Laerm;31365;48.858;8.530;2023-03-23T12:52:04;64.34;43.90;84.69;;
45651;Laerm;31365;48.858;8.530;2023-03-23T12:54:38;64.14;45.04;75.51;;
45651;Laerm;31365;48.858;8.530;2023-03-23T12:57:14;64.60;41.89;81.22;;
45651;Laerm;31365;48.858;8.530;2023-03-23T12:59:49;67.38;47.61;83.61;;
45651;Laerm;31365;48.858;8.530;2023-03-23T13:02:23;62.89;42.82;78.29;;
45651;Laerm;31365;48.858;8.530;2023-03-23T13:04:58;62.93;39.08;78.16;;
45651;Laerm;31365;48.858;8.530;2023-03-23T13:07:39;63.43;42.29;77.16;;
45651;Laerm;31365;48.858;8.530;2023-03-23T13:10:20;63.93;43.90;79.96;;
45651;Laerm;31365;48.858;8.530;2023-03-23T13:12:52;63.29;43.29;83.39;;
45651;Laerm;31365;48.858;8.530;2023-03-23T13:15:33;62.91;41.22;78.89;;
45651;Laerm;31365;48.858;8.530;2023-03-23T13:18:23;63.56;39.21;78.23;;
45651;Laerm;31365;48.858;8.530;2023-03-23T13:23:34;66.11;45.07;83.30;;
45651;Laerm;31365;48.858;8.530;2023-03-23T13:28:51;64.92;43.90;79.13;;
45651;Laerm;31365;48.858;8.530;2023-03-23T13:31:24;65.01;41.89;79.84;;
45651;Laerm;31365;48.858;8.530;2023-03-23T13:33:57;63.68;45.40;78.56;;
45651;Laerm;31365;48.858;8.530;2023-03-23T13:36:30;65.48;43.58;77.56;;
45651;Laerm;31365;48.858;8.530;2023-03-23T13:39:01;62.96;41.61;82.30;;
45651;Laerm;31365;48.858;8.530;2023-03-23T13:41:30;67.66;45.69;86.36;;
45651;Laerm;31365;48.858;8.530;2023-03-23T13:44:21;63.50;41.46;78.01;;
45651;Laerm;31365;48.858;8.530;2023-03-23T13:47:04;64.59;44.39;78.97;;
45651;Laerm;31365;48.858;8.530;2023-03-23T13:49:32;63.61;41.38;77.11;;
45651;Laerm;31365;48.858;8.530;2023-03-23T13:52:15;65.27;43.63;83.97;;
45651;Laerm;31365;48.858;8.530;2023-03-23T13:54:45;65.36;44.39;77.31;;
45651;Laerm;31365;48.858;8.530;2023-03-23T13:57:37;64.05;41.38;78.56;;
45651;Laerm;31365;48.858;8.530;2023-03-23T14:00:45;66.14;43.14;84.70;;
45651;Laerm;31365;48.858;8.530;2023-03-23T14:03:18;61.44;40.23;75.44;;
45651;Laerm;31365;48.858;8.530;2023-03-23T14:05:50;64.68;43.58;82.00;;
45651;Laerm;31365;48.858;8.530;2023-03-23T14:08:37;65.13;40.33;86.95;;
45651;Laerm;31365;48.858;8.530;2023-03-23T14:11:14;67.85;43.94;84.81;;
45651;Laerm;31365;48.858;8.530;2023-03-23T14:13:51;62.49;39.70;73.99;;
45651;Laerm;31365;48.858;8.530;2023-03-23T14:16:35;65.86;42.16;83.83;;
45651;Laerm;31365;48.858;8.530;2023-03-23T14:19:15;64.38;45.14;77.37;;
45651;Laerm;31365;48.858;8.530;2023-03-23T14:21:52;63.64;40.23;77.02;;
45651;Laerm;31365;48.858;8.530;2023-03-23T14:24:23;66.31;45.69;82.70;;
45651;Laerm;31365;48.858;8.530;2023-03-23T14:26:53;60.32;40.89;74.30;;
45651;Laerm;31365;48.858;8.530;2023-03-23T14:29:21;65.71;41.30;77.07;;
45651;Laerm;31365;48.858;8.530;2023-03-23T14:31:56;62.85;40.80;77.91;;
45651;Laerm;31365;48.858;8.530;2023-03-23T14:34:27;67.28;42.59;85.66;;
45651;Laerm;31365;48.858;8.530;2023-03-23T14:36:55;64.53;42.22;81.19;;
45651;Laerm;31365;48.858;8.530;2023-03-23T14:39:26;63.77;44.31;76.26;;
45651;Laerm;31365;48.858;8.530;2023-03-23T14:41:56;64.06;40.23;79.36;;
45651;Laerm;31365;48.858;8.530;2023-03-23T14:44:28;65.81;41.94;86.10;;